sensor_id;sensor_type;location;lat;lon;timestamp;P1;durP1;ratioP1;P2;durP2;ratioP2
33930;SDS011;20215;53.130;6.408;2022-11-14T00:02:25;11.65;;;8.27;;
33930;SDS011;20215;53.130;6.408;2022-11-14T00:04:51;12.57;;;8.45;;
33930;SDS011;20215;53.130;6.408;2022-11-14T00:07:17;12.82;;;8.63;;
33930;SDS011;20215;53.130;6.408;2022-11-14T00:09:42;13.40;;;8.48;;
33930;SDS011;20215;53.130;6.408;2022-11-14T00:12:08;12.63;;;8.18;;
33930;SDS011;20215;53.130;6.408;2022-11-14T00:14:34;11.80;;;7.93;;
33930;SDS011;20215;53.130;6.408;2022-11-14T00:17:00;11.68;;;8.15;;
33930;SDS011;20215;53.130;6.408;2022-11-14T00:19:26;12.20;;;8.25;;
33930;SDS011;20215;53.130;6.408;2022-11-14T00:21:52;13.15;;;8.23;;
33930;SDS011;20215;53.130;6.408;2022-11-14T00:24:18;9.93;;;7.80;;
33930;SDS011;20215;53.130;6.408;2022-11-14T00:26:44;11.70;;;7.88;;
33930;SDS011;20215;53.130;6.408;2022-11-14T00:29:10;10.82;;;7.40;;
33930;SDS011;20215;53.130;6.408;2022-11-14T00:31:36;11.13;;;6.90;;
33930;SDS011;20215;53.130;6.408;2022-11-14T00:34:02;11.15;;;6.60;;
33930;SDS011;20215;53.130;6.408;2022-11-14T00:36:28;12.50;;;7.85;;
33930;SDS011;20215;53.130;6.408;2022-11-14T00:38:54;10.48;;;7.95;;
33930;SDS011;20215;53.130;6.408;2022-11-14T00:41:19;11.15;;;6.97;;
33930;SDS011;20215;53.130;6.408;2022-11-14T00:43:45;9.73;;;6.78;;
33930;SDS011;20215;53.130;6.408;2022-11-14T00:46:11;10.63;;;7.40;;
33930;SDS011;20215;53.130;6.408;2022-11-14T00:48:37;10.07;;;7.55;;
33930;SDS011;20215;53.130;6.408;2022-11-14T00:51:02;10.68;;;7.13;;
33930;SDS011;20215;53.130;6.408;2022-11-14T00:53:28;11.65;;;7.65;;
33930;SDS011;20215;53.130;6.408;2022-11-14T00:55:54;11.57;;;7.72;;
33930;SDS011;20215;53.130;6.408;2022-11-14T00:58:19;13.60;;;8.18;;
33930;SDS011;20215;53.130;6.408;2022-11-14T01:00:45;10.63;;;7.95;;
33930;SDS011;20215;53.130;6.408;2022-11-14T01:03:11;9.18;;;6.97;;
33930;SDS011;20215;53.130;6.408;2022-11-14T01:05:43;11.10;;;8.18;;
33930;SDS011;20215;53.130;6.408;2022-11-14T01:08:10;10.73;;;7.43;;
33930;SDS011;20215;53.130;6.408;2022-11-14T01:10:38;10.23;;;7.03;;
33930;SDS011;20215;53.130;6.408;2022-11-14T01:13:04;10.27;;;7.32;;
33930;SDS011;20215;53.130;6.408;2022-11-14T01:15:30;11.15;;;6.88;;
33930;SDS011;20215;53.130;6.408;2022-11-14T01:17:56;10.10;;;7.10;;
33930;SDS011;20215;53.130;6.408;2022-11-14T01:20:21;10.68;;;7.15;;
33930;SDS011;20215;53.130;6.408;2022-11-14T01:22:47;11.18;;;7.80;;
33930;SDS011;20215;53.130;6.408;2022-11-14T01:25:12;10.95;;;7.45;;
33930;SDS011;20215;53.130;6.408;2022-11-14T01:27:38;10.60;;;7.47;;
33930;SDS011;20215;53.130;6.408;2022-11-14T01:30:04;8.80;;;6.78;;
33930;SDS011;20215;53.130;6.408;2022-11-14T01:32:30;12.65;;;8.85;;
33930;SDS011;20215;53.130;6.408;2022-11-14T01:34:55;11.80;;;7.97;;
33930;SDS011;20215;53.130;6.408;2022-11-14T01:37:21;10.25;;;7.53;;
33930;SDS011;20215;53.130;6.408;2022-11-14T01:39:46;12.30;;;8.55;;
33930;SDS011;20215;53.130;6.408;2022-11-14T01:42:12;11.25;;;7.35;;
33930;SDS011;20215;53.130;6.408;2022-11-14T01:44:45;11.73;;;8.05;;
33930;SDS011;20215;53.130;6.408;2022-11-14T01:47:15;11.30;;;8.20;;
33930;SDS011;20215;53.130;6.408;2022-11-14T01:49:47;12.55;;;8.45;;
33930;SDS011;20215;53.130;6.408;2022-11-14T01:54:54;11.68;;;7.80;;
33930;SDS011;20215;53.130;6.408;2022-11-14T01:57:27;9.60;;;6.97;;
33930;SDS011;20215;53.130;6.408;2022-11-14T01:59:57;11.25;;;8.10;;
33930;SDS011;20215;53.130;6.408;2022-11-14T02:02:26;12.80;;;8.85;;
33930;SDS011;20215;53.130;6.408;2022-11-14T02:04:56;13.40;;;10.07;;
33930;SDS011;20215;53.130;6.408;2022-11-14T02:07:26;14.48;;;10.13;;
33930;SDS011;20215;53.130;6.408;2022-11-14T02:09:56;12.80;;;8.65;;
33930;SDS011;20215;53.130;6.408;2022-11-14T02:12:25;11.82;;;8.38;;
33930;SDS011;20215;53.130;6.408;2022-11-14T02:14:51;12.20;;;9.20;;
33930;SDS011;20215;53.130;6.408;2022-11-14T02:17:19;15.35;;;10.45;;
33930;SDS011;20215;53.130;6.408;2022-11-14T02:19:46;13.98;;;9.82;;
33930;SDS011;20215;53.130;6.408;2022-11-14T02:22:15;14.27;;;9.88;;
33930;SDS011;20215;53.130;6.408;2022-11-14T02:24:41;15.52;;;11.10;;
33930;SDS011;20215;53.130;6.408;2022-11-14T02:27:07;15.20;;;10.85;;
33930;SDS011;20215;53.130;6.408;2022-11-14T02:29:34;14.18;;;9.90;;
33930;SDS011;20215;53.130;6.408;2022-11-14T02:32:00;16.80;;;11.13;;
33930;SDS011;20215;53.130;6.408;2022-11-14T02:34:26;16.48;;;11.75;;
33930;SDS011;20215;53.130;6.408;2022-11-14T02:36:51;17.83;;;11.65;;
33930;SDS011;20215;53.130;6.408;2022-11-14T02:39:17;15.90;;;11.40;;
33930;SDS011;20215;53.130;6.408;2022-11-14T02:41:43;16.77;;;11.93;;
33930;SDS011;20215;53.130;6.408;2022-11-14T02:44:08;18.17;;;12.35;;
33930;SDS011;20215;53.130;6.408;2022-11-14T02:46:34;17.35;;;11.30;;
33930;SDS011;20215;53.130;6.408;2022-11-14T02:49:00;16.77;;;12.45;;
33930;SDS011;20215;53.130;6.408;2022-11-14T02:51:25;17.73;;;12.20;;
33930;SDS011;20215;53.130;6.408;2022-11-14T02:53:51;18.58;;;12.48;;
33930;SDS011;20215;53.130;6.408;2022-11-14T02:56:16;23.42;;;14.73;;
33930;SDS011;20215;53.130;6.408;2022-11-14T02:58:42;19.13;;;13.35;;
33930;SDS011;20215;53.130;6.408;2022-11-14T03:01:08;19.90;;;13.32;;
33930;SDS011;20215;53.130;6.408;2022-11-14T03:03:33;18.90;;;13.05;;
33930;SDS011;20215;53.130;6.408;2022-11-14T03:06:02;21.45;;;14.05;;
33930;SDS011;20215;53.130;6.408;2022-11-14T03:08:28;20.25;;;12.88;;
33930;SDS011;20215;53.130;6.408;2022-11-14T03:10:54;17.83;;;13.15;;
33930;SDS011;20215;53.130;6.408;2022-11-14T03:13:20;18.23;;;12.63;;
33930;SDS011;20215;53.130;6.408;2022-11-14T03:15:46;20.77;;;14.20;;
33930;SDS011;20215;53.130;6.408;2022-11-14T03:18:12;20.17;;;13.75;;
33930;SDS011;20215;53.130;6.408;2022-11-14T03:20:38;18.95;;;12.50;;
33930;SDS011;20215;53.130;6.408;2022-11-14T03:23:03;22.20;;;14.48;;
33930;SDS011;20215;53.130;6.408;2022-11-14T03:25:29;18.95;;;13.20;;
33930;SDS011;20215;53.130;6.408;2022-11-14T03:27:55;19.33;;;13.23;;
33930;SDS011;20215;53.130;6.408;2022-11-14T03:30:21;22.75;;;15.52;;
33930;SDS011;20215;53.130;6.408;2022-11-14T03:32:46;20.90;;;14.55;;
33930;SDS011;20215;53.130;6.408;2022-11-14T03:35:12;20.00;;;14.48;;
33930;SDS011;20215;53.130;6.408;2022-11-14T03:37:37;20.90;;;13.30;;
33930;SDS011;20215;53.130;6.408;2022-11-14T03:40:03;20.02;;;13.63;;
33930;SDS011;20215;53.130;6.408;2022-11-14T03:42:33;21.73;;;15.10;;
33930;SDS011;20215;53.130;6.408;2022-11-14T03:44:59;21.13;;;13.60;;
33930;SDS011;20215;53.130;6.408;2022-11-14T03:47:25;20.08;;;13.65;;
33930;SDS011;20215;53.130;6.408;2022-11-14T03:49:51;22.45;;;14.73;;
33930;SDS011;20215;53.130;6.408;2022-11-14T03:52:16;20.98;;;15.18;;
33930;SDS011;20215;53.130;6.408;2022-11-14T03:54:42;20.00;;;14.63;;
33930;SDS011;20215;53.130;6.408;2022-11-14T03:57:07;18.08;;;12.27;;
33930;SDS011;20215;53.130;6.408;2022-11-14T03:59:33;22.73;;;14.23;;
33930;SDS011;20215;53.130;6.408;2022-11-14T04:01:58;20.27;;;13.73;;
33930;SDS011;20215;53.130;6.408;2022-11-14T04:04:24;18.38;;;12.85;;
33930;SDS011;20215;53.130;6.408;2022-11-14T04:06:50;18.73;;;13.60;;
33930;SDS011;20215;53.130;6.408;2022-11-14T04:09:15;23.70;;;15.27;;
33930;SDS011;20215;53.130;6.408;2022-11-14T04:11:41;19.85;;;13.80;;
33930;SDS011;20215;53.130;6.408;2022-11-14T04:14:06;19.52;;;12.75;;
33930;SDS011;20215;53.130;6.408;2022-11-14T04:16:33;19.98;;;13.60;;
33930;SDS011;20215;53.130;6.408;2022-11-14T04:18:58;23.00;;;14.75;;
33930;SDS011;20215;53.130;6.408;2022-11-14T04:21:24;21.30;;;14.65;;
33930;SDS011;20215;53.130;6.408;2022-11-14T04:23:49;21.98;;;13.82;;
33930;SDS011;20215;53.130;6.408;2022-11-14T04:26:15;22.38;;;15.25;;
33930;SDS011;20215;53.130;6.408;2022-11-14T04:28:41;21.20;;;14.57;;
33930;SDS011;20215;53.130;6.408;2022-11-14T04:31:06;23.95;;;14.93;;
33930;SDS011;20215;53.130;6.408;2022-11-14T04:33:32;21.23;;;15.40;;
33930;SDS011;20215;53.130;6.408;2022-11-14T04:35:57;24.10;;;15.57;;
33930;SDS011;20215;53.130;6.408;2022-11-14T04:38:23;20.42;;;15.00;;
33930;SDS011;20215;53.130;6.408;2022-11-14T04:40:49;21.02;;;14.32;;
33930;SDS011;20215;53.130;6.408;2022-11-14T04:43:16;24.08;;;14.80;;
33930;SDS011;20215;53.130;6.408;2022-11-14T04:45:42;20.80;;;14.25;;
33930;SDS011;20215;53.130;6.408;2022-11-14T04:48:07;22.40;;;15.35;;
33930;SDS011;20215;53.130;6.408;2022-11-14T04:50:33;21.02;;;14.65;;
33930;SDS011;20215;53.130;6.408;2022-11-14T04:52:59;23.30;;;14.70;;
33930;SDS011;20215;53.130;6.408;2022-11-14T04:55:25;21.20;;;14.00;;
33930;SDS011;20215;53.130;6.408;2022-11-14T04:57:53;21.42;;;14.30;;
33930;SDS011;20215;53.130;6.408;2022-11-14T05:00:20;21.20;;;14.05;;
33930;SDS011;20215;53.130;6.408;2022-11-14T05:02:46;19.13;;;14.20;;
33930;SDS011;20215;53.130;6.408;2022-11-14T05:05:12;19.27;;;14.02;;
33930;SDS011;20215;53.130;6.408;2022-11-14T05:07:37;21.10;;;13.95;;
33930;SDS011;20215;53.130;6.408;2022-11-14T05:10:03;23.50;;;15.95;;
33930;SDS011;20215;53.130;6.408;2022-11-14T05:12:29;21.08;;;14.27;;
33930;SDS011;20215;53.130;6.408;2022-11-14T05:14:55;19.88;;;14.23;;
33930;SDS011;20215;53.130;6.408;2022-11-14T05:17:20;18.52;;;11.57;;
33930;SDS011;20215;53.130;6.408;2022-11-14T05:19:46;18.08;;;12.38;;
33930;SDS011;20215;53.130;6.408;2022-11-14T05:22:12;22.33;;;15.25;;
33930;SDS011;20215;53.130;6.408;2022-11-14T05:24:38;20.73;;;13.05;;
33930;SDS011;20215;53.130;6.408;2022-11-14T05:27:03;19.23;;;13.48;;
33930;SDS011;20215;53.130;6.408;2022-11-14T05:29:29;18.70;;;13.38;;
33930;SDS011;20215;53.130;6.408;2022-11-14T05:31:55;18.65;;;13.18;;
33930;SDS011;20215;53.130;6.408;2022-11-14T05:34:21;16.67;;;11.27;;
33930;SDS011;20215;53.130;6.408;2022-11-14T05:36:47;18.50;;;13.52;;
33930;SDS011;20215;53.130;6.408;2022-11-14T05:39:13;24.83;;;16.00;;
33930;SDS011;20215;53.130;6.408;2022-11-14T05:41:39;20.40;;;13.60;;
33930;SDS011;20215;53.130;6.408;2022-11-14T05:44:04;13.75;;;10.50;;
33930;SDS011;20215;53.130;6.408;2022-11-14T05:46:30;16.15;;;11.07;;
33930;SDS011;20215;53.130;6.408;2022-11-14T05:48:56;15.88;;;10.73;;
33930;SDS011;20215;53.130;6.408;2022-11-14T05:51:22;14.35;;;10.30;;
33930;SDS011;20215;53.130;6.408;2022-11-14T05:53:49;16.55;;;11.38;;
33930;SDS011;20215;53.130;6.408;2022-11-14T05:56:14;14.82;;;10.55;;
33930;SDS011;20215;53.130;6.408;2022-11-14T05:58:40;18.17;;;12.20;;
33930;SDS011;20215;53.130;6.408;2022-11-14T06:01:16;16.98;;;11.35;;
33930;SDS011;20215;53.130;6.408;2022-11-14T06:03:43;17.73;;;11.80;;
33930;SDS011;20215;53.130;6.408;2022-11-14T06:06:12;17.80;;;12.05;;
33930;SDS011;20215;53.130;6.408;2022-11-14T06:08:40;16.73;;;11.70;;
33930;SDS011;20215;53.130;6.408;2022-11-14T06:11:10;18.02;;;12.40;;
33930;SDS011;20215;53.130;6.408;2022-11-14T06:13:40;19.27;;;12.00;;
33930;SDS011;20215;53.130;6.408;2022-11-14T06:16:11;18.08;;;13.43;;
33930;SDS011;20215;53.130;6.408;2022-11-14T06:18:39;18.52;;;13.13;;
33930;SDS011;20215;53.130;6.408;2022-11-14T06:21:12;19.48;;;14.13;;
33930;SDS011;20215;53.130;6.408;2022-11-14T06:23:38;21.70;;;15.38;;
33930;SDS011;20215;53.130;6.408;2022-11-14T06:26:04;20.10;;;13.27;;
33930;SDS011;20215;53.130;6.408;2022-11-14T06:28:32;20.75;;;13.63;;
33930;SDS011;20215;53.130;6.408;2022-11-14T06:30:58;24.05;;;14.70;;
33930;SDS011;20215;53.130;6.408;2022-11-14T06:33:25;19.33;;;12.88;;
33930;SDS011;20215;53.130;6.408;2022-11-14T06:35:58;18.52;;;14.02;;
33930;SDS011;20215;53.130;6.408;2022-11-14T06:38:25;21.20;;;14.90;;
33930;SDS011;20215;53.130;6.408;2022-11-14T06:40:51;20.58;;;13.98;;
33930;SDS011;20215;53.130;6.408;2022-11-14T06:43:17;21.88;;;13.43;;
33930;SDS011;20215;53.130;6.408;2022-11-14T06:45:48;20.38;;;14.77;;
33930;SDS011;20215;53.130;6.408;2022-11-14T06:48:17;19.90;;;13.68;;
33930;SDS011;20215;53.130;6.408;2022-11-14T06:50:42;21.65;;;15.55;;
33930;SDS011;20215;53.130;6.408;2022-11-14T06:53:08;24.70;;;15.38;;
33930;SDS011;20215;53.130;6.408;2022-11-14T06:55:33;25.52;;;16.70;;
33930;SDS011;20215;53.130;6.408;2022-11-14T06:57:59;23.30;;;16.45;;
33930;SDS011;20215;53.130;6.408;2022-11-14T07:00:24;22.50;;;14.93;;
33930;SDS011;20215;53.130;6.408;2022-11-14T07:02:50;22.13;;;14.45;;
33930;SDS011;20215;53.130;6.408;2022-11-14T07:05:16;21.75;;;15.13;;
33930;SDS011;20215;53.130;6.408;2022-11-14T07:07:41;22.88;;;14.43;;
33930;SDS011;20215;53.130;6.408;2022-11-14T07:10:07;21.65;;;14.70;;
33930;SDS011;20215;53.130;6.408;2022-11-14T07:12:33;21.98;;;14.38;;
33930;SDS011;20215;53.130;6.408;2022-11-14T07:14:58;21.10;;;14.35;;
33930;SDS011;20215;53.130;6.408;2022-11-14T07:17:24;20.85;;;14.70;;
33930;SDS011;20215;53.130;6.408;2022-11-14T07:19:49;20.98;;;14.18;;
33930;SDS011;20215;53.130;6.408;2022-11-14T07:22:15;20.00;;;13.88;;
33930;SDS011;20215;53.130;6.408;2022-11-14T07:24:40;21.40;;;14.85;;
33930;SDS011;20215;53.130;6.408;2022-11-14T07:27:06;23.15;;;15.15;;
33930;SDS011;20215;53.130;6.408;2022-11-14T07:29:35;22.52;;;14.73;;
33930;SDS011;20215;53.130;6.408;2022-11-14T07:32:00;21.35;;;14.25;;
33930;SDS011;20215;53.130;6.408;2022-11-14T07:34:26;18.92;;;13.02;;
33930;SDS011;20215;53.130;6.408;2022-11-14T07:36:52;22.38;;;14.98;;
33930;SDS011;20215;53.130;6.408;2022-11-14T07:39:19;21.83;;;14.57;;
33930;SDS011;20215;53.130;6.408;2022-11-14T07:41:45;21.27;;;14.98;;
33930;SDS011;20215;53.130;6.408;2022-11-14T07:44:10;24.00;;;14.77;;
33930;SDS011;20215;53.130;6.408;2022-11-14T07:46:36;22.52;;;15.18;;
33930;SDS011;20215;53.130;6.408;2022-11-14T07:49:02;21.00;;;14.52;;
33930;SDS011;20215;53.130;6.408;2022-11-14T07:51:27;26.27;;;16.00;;
33930;SDS011;20215;53.130;6.408;2022-11-14T07:53:53;25.02;;;15.13;;
33930;SDS011;20215;53.130;6.408;2022-11-14T07:56:19;23.45;;;15.27;;
33930;SDS011;20215;53.130;6.408;2022-11-14T07:58:46;20.77;;;14.05;;
33930;SDS011;20215;53.130;6.408;2022-11-14T08:01:12;26.75;;;16.77;;
33930;SDS011;20215;53.130;6.408;2022-11-14T08:03:38;23.50;;;15.23;;
33930;SDS011;20215;53.130;6.408;2022-11-14T08:06:10;24.70;;;16.40;;
33930;SDS011;20215;53.130;6.408;2022-11-14T08:08:37;23.73;;;15.88;;
33930;SDS011;20215;53.130;6.408;2022-11-14T08:11:03;28.40;;;16.80;;
33930;SDS011;20215;53.130;6.408;2022-11-14T08:13:29;24.80;;;16.13;;
33930;SDS011;20215;53.130;6.408;2022-11-14T08:15:55;21.27;;;15.27;;
33930;SDS011;20215;53.130;6.408;2022-11-14T08:18:22;23.00;;;15.48;;
33930;SDS011;20215;53.130;6.408;2022-11-14T08:20:47;24.60;;;15.23;;
33930;SDS011;20215;53.130;6.408;2022-11-14T08:23:13;24.23;;;16.95;;
33930;SDS011;20215;53.130;6.408;2022-11-14T08:25:39;26.77;;;16.23;;
33930;SDS011;20215;53.130;6.408;2022-11-14T08:28:05;24.65;;;15.68;;
33930;SDS011;20215;53.130;6.408;2022-11-14T08:30:31;20.42;;;14.15;;
33930;SDS011;20215;53.130;6.408;2022-11-14T08:32:59;25.30;;;16.00;;
33930;SDS011;20215;53.130;6.408;2022-11-14T08:35:26;23.17;;;16.00;;
33930;SDS011;20215;53.130;6.408;2022-11-14T08:37:51;22.27;;;14.63;;
33930;SDS011;20215;53.130;6.408;2022-11-14T08:40:17;23.75;;;15.88;;
33930;SDS011;20215;53.130;6.408;2022-11-14T08:42:43;21.52;;;13.90;;
33930;SDS011;20215;53.130;6.408;2022-11-14T08:45:09;22.85;;;14.70;;
33930;SDS011;20215;53.130;6.408;2022-11-14T08:47:34;23.25;;;14.80;;
33930;SDS011;20215;53.130;6.408;2022-11-14T08:50:00;26.15;;;14.95;;
33930;SDS011;20215;53.130;6.408;2022-11-14T08:52:26;22.83;;;15.07;;
33930;SDS011;20215;53.130;6.408;2022-11-14T08:54:51;21.25;;;13.70;;
33930;SDS011;20215;53.130;6.408;2022-11-14T08:57:17;24.05;;;15.73;;
33930;SDS011;20215;53.130;6.408;2022-11-14T08:59:42;23.35;;;15.20;;
33930;SDS011;20215;53.130;6.408;2022-11-14T09:02:09;24.05;;;15.52;;
33930;SDS011;20215;53.130;6.408;2022-11-14T09:04:35;22.42;;;13.82;;
33930;SDS011;20215;53.130;6.408;2022-11-14T09:07:01;24.05;;;15.00;;
33930;SDS011;20215;53.130;6.408;2022-11-14T09:09:26;24.65;;;15.57;;
33930;SDS011;20215;53.130;6.408;2022-11-14T09:11:52;22.40;;;14.70;;
33930;SDS011;20215;53.130;6.408;2022-11-14T09:14:17;25.30;;;15.05;;
33930;SDS011;20215;53.130;6.408;2022-11-14T09:16:43;22.67;;;14.02;;
33930;SDS011;20215;53.130;6.408;2022-11-14T09:19:11;24.48;;;15.10;;
33930;SDS011;20215;53.130;6.408;2022-11-14T09:21:37;25.50;;;15.05;;
33930;SDS011;20215;53.130;6.408;2022-11-14T09:24:03;22.50;;;14.73;;
33930;SDS011;20215;53.130;6.408;2022-11-14T09:26:28;25.52;;;15.52;;
33930;SDS011;20215;53.130;6.408;2022-11-14T09:28:54;23.40;;;15.30;;
33930;SDS011;20215;53.130;6.408;2022-11-14T09:31:20;21.50;;;14.05;;
33930;SDS011;20215;53.130;6.408;2022-11-14T09:33:45;23.80;;;15.50;;
33930;SDS011;20215;53.130;6.408;2022-11-14T09:36:11;25.98;;;15.50;;
33930;SDS011;20215;53.130;6.408;2022-11-14T09:38:40;25.08;;;15.10;;
33930;SDS011;20215;53.130;6.408;2022-11-14T09:46:42;25.90;;;15.48;;
33930;SDS011;20215;53.130;6.408;2022-11-14T09:49:10;22.75;;;14.95;;
33930;SDS011;20215;53.130;6.408;2022-11-14T09:54:55;21.85;;;14.65;;
33930;SDS011;20215;53.130;6.408;2022-11-14T09:57:26;25.00;;;16.48;;
33930;SDS011;20215;53.130;6.408;2022-11-14T09:59:52;23.05;;;15.07;;
33930;SDS011;20215;53.130;6.408;2022-11-14T10:08:01;21.45;;;13.40;;
33930;SDS011;20215;53.130;6.408;2022-11-14T10:13:25;27.13;;;16.83;;
33930;SDS011;20215;53.130;6.408;2022-11-14T10:15:55;23.65;;;15.50;;
33930;SDS011;20215;53.130;6.408;2022-11-14T10:21:25;24.30;;;15.68;;
33930;SDS011;20215;53.130;6.408;2022-11-14T10:24:22;23.60;;;15.63;;
33930;SDS011;20215;53.130;6.408;2022-11-14T10:27:09;24.40;;;15.52;;
33930;SDS011;20215;53.130;6.408;2022-11-14T10:34:33;21.88;;;15.35;;
33930;SDS011;20215;53.130;6.408;2022-11-14T10:37:21;23.48;;;14.98;;
33930;SDS011;20215;53.130;6.408;2022-11-14T10:40:02;23.70;;;14.93;;
33930;SDS011;20215;53.130;6.408;2022-11-14T10:42:54;21.98;;;13.90;;
33930;SDS011;20215;53.130;6.408;2022-11-14T10:45:25;20.33;;;13.75;;
33930;SDS011;20215;53.130;6.408;2022-11-14T10:48:13;21.35;;;14.35;;
33930;SDS011;20215;53.130;6.408;2022-11-14T10:50:48;20.30;;;14.35;;
33930;SDS011;20215;53.130;6.408;2022-11-14T10:55:55;20.55;;;13.50;;
33930;SDS011;20215;53.130;6.408;2022-11-14T10:58:22;24.60;;;15.25;;
33930;SDS011;20215;53.130;6.408;2022-11-14T11:00:48;22.75;;;15.68;;
33930;SDS011;20215;53.130;6.408;2022-11-14T11:03:14;19.98;;;13.32;;
33930;SDS011;20215;53.130;6.408;2022-11-14T11:05:49;22.13;;;14.77;;
33930;SDS011;20215;53.130;6.408;2022-11-14T11:08:21;21.33;;;14.32;;
33930;SDS011;20215;53.130;6.408;2022-11-14T11:11:12;23.38;;;15.45;;
33930;SDS011;20215;53.130;6.408;2022-11-14T11:13:54;21.63;;;14.35;;
33930;SDS011;20215;53.130;6.408;2022-11-14T11:16:22;21.33;;;14.10;;
33930;SDS011;20215;53.130;6.408;2022-11-14T11:18:49;21.35;;;14.35;;
33930;SDS011;20215;53.130;6.408;2022-11-14T11:21:16;21.05;;;13.80;;
33930;SDS011;20215;53.130;6.408;2022-11-14T11:23:50;23.30;;;14.77;;
33930;SDS011;20215;53.130;6.408;2022-11-14T11:26:19;19.73;;;13.38;;
33930;SDS011;20215;53.130;6.408;2022-11-14T11:28:59;21.20;;;14.52;;
33930;SDS011;20215;53.130;6.408;2022-11-14T11:31:53;19.73;;;13.40;;
33930;SDS011;20215;53.130;6.408;2022-11-14T11:34:22;19.13;;;13.48;;
33930;SDS011;20215;53.130;6.408;2022-11-14T11:37:02;20.25;;;13.27;;
33930;SDS011;20215;53.130;6.408;2022-11-14T11:39:33;19.20;;;13.38;;
33930;SDS011;20215;53.130;6.408;2022-11-14T11:42:05;19.98;;;12.73;;
33930;SDS011;20215;53.130;6.408;2022-11-14T11:44:37;19.40;;;13.18;;
33930;SDS011;20215;53.130;6.408;2022-11-14T11:47:12;20.50;;;13.90;;
33930;SDS011;20215;53.130;6.408;2022-11-14T11:49:48;21.70;;;13.65;;
33930;SDS011;20215;53.130;6.408;2022-11-14T11:54:55;20.40;;;13.88;;
33930;SDS011;20215;53.130;6.408;2022-11-14T11:57:40;19.85;;;13.85;;
33930;SDS011;20215;53.130;6.408;2022-11-14T12:00:13;19.00;;;12.88;;
33930;SDS011;20215;53.130;6.408;2022-11-14T12:02:49;20.05;;;13.38;;
33930;SDS011;20215;53.130;6.408;2022-11-14T12:05:17;20.25;;;14.02;;
33930;SDS011;20215;53.130;6.408;2022-11-14T12:08:03;22.38;;;14.35;;
33930;SDS011;20215;53.130;6.408;2022-11-14T12:10:38;21.40;;;13.68;;
33930;SDS011;20215;53.130;6.408;2022-11-14T12:35:33;21.52;;;14.43;;
33930;SDS011;20215;53.130;6.408;2022-11-14T12:38:00;18.30;;;13.25;;
33930;SDS011;20215;53.130;6.408;2022-11-14T12:42:56;22.50;;;14.68;;
33930;SDS011;20215;53.130;6.408;2022-11-14T12:50:51;17.52;;;12.35;;
33930;SDS011;20215;53.130;6.408;2022-11-14T13:06:51;18.15;;;11.43;;
33930;SDS011;20215;53.130;6.408;2022-11-14T13:12:36;16.33;;;11.32;;
33930;SDS011;20215;53.130;6.408;2022-11-14T13:15:30;17.20;;;11.75;;
33930;SDS011;20215;53.130;6.408;2022-11-14T13:18:33;19.30;;;12.80;;
33930;SDS011;20215;53.130;6.408;2022-11-14T13:24:03;17.83;;;12.77;;
33930;SDS011;20215;53.130;6.408;2022-11-14T13:28:55;18.85;;;12.32;;
33930;SDS011;20215;53.130;6.408;2022-11-14T13:31:41;20.33;;;14.40;;
33930;SDS011;20215;53.130;6.408;2022-11-14T13:37:04;19.90;;;13.32;;
33930;SDS011;20215;53.130;6.408;2022-11-14T13:43:07;17.50;;;12.32;;
33930;SDS011;20215;53.130;6.408;2022-11-14T13:48:51;16.33;;;12.18;;
33930;SDS011;20215;53.130;6.408;2022-11-14T13:51:44;20.33;;;13.68;;
33930;SDS011;20215;53.130;6.408;2022-11-14T13:54:11;20.60;;;12.60;;
33930;SDS011;20215;53.130;6.408;2022-11-14T13:56:47;15.55;;;11.27;;
33930;SDS011;20215;53.130;6.408;2022-11-14T13:59:22;19.02;;;12.90;;
33930;SDS011;20215;53.130;6.408;2022-11-14T14:10:29;15.68;;;11.48;;
33930;SDS011;20215;53.130;6.408;2022-11-14T14:13:25;18.95;;;12.00;;
33930;SDS011;20215;53.130;6.408;2022-11-14T14:16:17;19.17;;;13.50;;
33930;SDS011;20215;53.130;6.408;2022-11-14T14:22:02;22.00;;;14.10;;
33930;SDS011;20215;53.130;6.408;2022-11-14T14:30:08;18.20;;;11.77;;
33930;SDS011;20215;53.130;6.408;2022-11-14T14:32:35;17.40;;;12.18;;
33930;SDS011;20215;53.130;6.408;2022-11-14T14:37:50;16.98;;;11.82;;
33930;SDS011;20215;53.130;6.408;2022-11-14T14:42:50;17.17;;;11.23;;
33930;SDS011;20215;53.130;6.408;2022-11-14T14:45:20;15.32;;;9.73;;
33930;SDS011;20215;53.130;6.408;2022-11-14T14:47:48;15.73;;;11.73;;
33930;SDS011;20215;53.130;6.408;2022-11-14T14:50:23;16.52;;;10.77;;
33930;SDS011;20215;53.130;6.408;2022-11-14T14:52:56;16.90;;;11.60;;
33930;SDS011;20215;53.130;6.408;2022-11-14T14:55:25;13.68;;;10.50;;
33930;SDS011;20215;53.130;6.408;2022-11-14T15:01:09;13.80;;;10.32;;
33930;SDS011;20215;53.130;6.408;2022-11-14T15:03:43;13.93;;;10.63;;
33930;SDS011;20215;53.130;6.408;2022-11-14T15:08:53;15.63;;;11.13;;
33930;SDS011;20215;53.130;6.408;2022-11-14T15:11:20;13.50;;;10.13;;
33930;SDS011;20215;53.130;6.408;2022-11-14T15:13:47;13.13;;;10.02;;
33930;SDS011;20215;53.130;6.408;2022-11-14T15:16:16;15.77;;;11.32;;
33930;SDS011;20215;53.130;6.408;2022-11-14T15:18:42;14.25;;;10.50;;
33930;SDS011;20215;53.130;6.408;2022-11-14T15:26:26;14.70;;;10.73;;
33930;SDS011;20215;53.130;6.408;2022-11-14T15:29:15;13.77;;;10.23;;
33930;SDS011;20215;53.130;6.408;2022-11-14T15:34:27;13.50;;;9.82;;
33930;SDS011;20215;53.130;6.408;2022-11-14T15:39:40;13.77;;;9.85;;
33930;SDS011;20215;53.130;6.408;2022-11-14T15:42:13;15.05;;;10.65;;
33930;SDS011;20215;53.130;6.408;2022-11-14T15:44:48;12.80;;;9.63;;
33930;SDS011;20215;53.130;6.408;2022-11-14T15:47:21;13.25;;;9.32;;
33930;SDS011;20215;53.130;6.408;2022-11-14T15:52:25;16.38;;;10.82;;
33930;SDS011;20215;53.130;6.408;2022-11-14T15:54:51;14.75;;;10.05;;
33930;SDS011;20215;53.130;6.408;2022-11-14T15:57:17;14.68;;;10.77;;
33930;SDS011;20215;53.130;6.408;2022-11-14T15:59:42;14.73;;;10.15;;
33930;SDS011;20215;53.130;6.408;2022-11-14T16:05:12;13.40;;;9.77;;
33930;SDS011;20215;53.130;6.408;2022-11-14T16:07:39;14.07;;;9.98;;
33930;SDS011;20215;53.130;6.408;2022-11-14T16:10:09;15.18;;;9.73;;
33930;SDS011;20215;53.130;6.408;2022-11-14T16:12:46;11.85;;;8.93;;
33930;SDS011;20215;53.130;6.408;2022-11-14T16:15:12;14.45;;;9.55;;
33930;SDS011;20215;53.130;6.408;2022-11-14T16:17:38;13.73;;;9.23;;
33930;SDS011;20215;53.130;6.408;2022-11-14T16:20:07;13.27;;;9.38;;
33930;SDS011;20215;53.130;6.408;2022-11-14T16:22:40;14.48;;;8.70;;
33930;SDS011;20215;53.130;6.408;2022-11-14T16:25:17;13.90;;;10.00;;
33930;SDS011;20215;53.130;6.408;2022-11-14T16:27:48;11.90;;;8.57;;
33930;SDS011;20215;53.130;6.408;2022-11-14T16:30:14;13.32;;;9.60;;
33930;SDS011;20215;53.130;6.408;2022-11-14T16:32:42;11.32;;;7.88;;
33930;SDS011;20215;53.130;6.408;2022-11-14T16:37:40;11.82;;;9.15;;
33930;SDS011;20215;53.130;6.408;2022-11-14T16:40:06;10.43;;;8.10;;
33930;SDS011;20215;53.130;6.408;2022-11-14T16:42:55;12.60;;;8.80;;
33930;SDS011;20215;53.130;6.408;2022-11-14T16:45:23;13.03;;;9.93;;
33930;SDS011;20215;53.130;6.408;2022-11-14T16:47:49;12.05;;;8.30;;
33930;SDS011;20215;53.130;6.408;2022-11-14T16:50:15;11.48;;;8.90;;
33930;SDS011;20215;53.130;6.408;2022-11-14T16:52:41;10.68;;;7.55;;
33930;SDS011;20215;53.130;6.408;2022-11-14T16:55:08;11.75;;;8.65;;